createdAt,value
2023-05-14T00:00:35.662Z,9.63
2023-05-14T00:01:37.336Z,9.20
2023-05-14T00:02:39.132Z,11.65
2023-05-14T00:03:41.215Z,11.63
2023-05-14T00:04:43.069Z,11.10
2023-05-14T00:05:44.668Z,12.30
2023-05-14T00:06:46.480Z,10.50
2023-05-14T00:07:48.043Z,10.30
2023-05-14T00:08:49.579Z,9.68
2023-05-14T00:09:51.138Z,10.10
2023-05-14T00:10:52.684Z,10.13
2023-05-14T00:11:54.289Z,11.07
2023-05-14T00:12:55.838Z,10.52
2023-05-14T00:13:57.403Z,10.63
2023-05-14T00:14:59.060Z,9.15
2023-05-14T00:16:00.673Z,9.75
2023-05-14T00:17:02.268Z,10.18
2023-05-14T00:18:03.967Z,11.70
2023-05-14T00:19:05.809Z,11.13
2023-05-14T00:20:07.848Z,10.93
2023-05-14T00:21:09.426Z,9.35
2023-05-14T00:22:11.138Z,10.07
2023-05-14T00:23:12.700Z,10.60
2023-05-14T00:24:14.597Z,10.32
2023-05-14T00:25:16.207Z,10.55
2023-05-14T00:26:17.775Z,11.27
2023-05-14T00:27:19.951Z,9.85
2023-05-14T00:28:21.727Z,11.68
2023-05-14T00:29:23.473Z,10.68
2023-05-14T00:30:25.356Z,10.20
2023-05-14T00:31:28.365Z,9.45
2023-05-14T00:32:29.968Z,11.60
2023-05-14T00:33:31.699Z,10.35
2023-05-14T00:34:33.670Z,10.15
2023-05-14T00:35:35.921Z,10.68
2023-05-14T00:36:37.810Z,9.70
2023-05-14T00:37:39.489Z,12.60
2023-05-14T00:38:41.077Z,11.48
2023-05-14T00:39:42.978Z,10.50
2023-05-14T00:40:51.789Z,12.10
2023-05-14T00:41:53.430Z,9.93
2023-05-14T00:42:56.065Z,10.02
2023-05-14T00:43:57.610Z,12.00
2023-05-14T00:44:59.248Z,11.18
2023-05-14T00:46:00.987Z,12.18
2023-05-14T00:47:03.569Z,10.27
2023-05-14T00:48:05.733Z,11.68
2023-05-14T00:49:07.355Z,10.38
2023-05-14T00:50:09.295Z,10.55
2023-05-14T00:51:11.042Z,9.93
2023-05-14T00:52:12.822Z,11.65
2023-05-14T00:53:14.661Z,11.50
2023-05-14T00:54:16.719Z,10.68
2023-05-14T00:55:19.063Z,10.50
2023-05-14T00:56:21.301Z,10.68
2023-05-14T00:57:22.852Z,11.38
2023-05-14T00:58:24.796Z,10.25
2023-05-14T00:59:26.505Z,11.55
2023-05-14T01:00:28.109Z,10.18
2023-05-14T01:01:29.822Z,11.10
2023-05-14T01:02:31.508Z,11.25
2023-05-14T01:03:33.776Z,11.75
2023-05-14T01:04:35.574Z,12.95
2023-05-14T01:05:43.822Z,10.65
2023-05-14T01:07:01.395Z,9.35
2023-05-14T01:08:10.785Z,11.30
2023-05-14T01:09:21.806Z,10.43
2023-05-14T01:10:46.155Z,17.20
2023-05-14T01:12:18.797Z,10.60
2023-05-14T01:13:35.098Z,11.88
2023-05-14T01:14:54.740Z,10.77
2023-05-14T01:15:57.697Z,11.00
2023-05-14T01:16:59.816Z,10.85
2023-05-14T01:18:10.936Z,9.38
2023-05-14T01:19:22.525Z,11.95
2023-05-14T01:20:24.306Z,11.77
2023-05-14T01:21:40.805Z,16.92
2023-05-14T01:22:42.674Z,12.27
2023-05-14T01:23:44.233Z,12.65
2023-05-14T01:24:45.784Z,9.40
2023-05-14T01:25:47.469Z,11.52
2023-05-14T01:26:49.071Z,11.07
2023-05-14T01:28:05.718Z,11.30
2023-05-14T01:29:20.682Z,11.05
2023-05-14T01:30:34.706Z,13.82
2023-05-14T01:31:39.282Z,11.52
2023-05-14T01:32:41.885Z,9.77
2023-05-14T01:33:43.945Z,11.40
2023-05-14T01:34:47.369Z,12.27
2023-05-14T01:35:49.814Z,11.43
2023-05-14T01:36:51.823Z,10.73
2023-05-14T01:37:58.726Z,14.07
2023-05-14T01:39:01.946Z,11.68
2023-05-14T01:40:05.870Z,10.82
2023-05-14T01:41:07.744Z,11.55
2023-05-14T01:42:09.876Z,12.70
2023-05-14T01:43:11.906Z,11.77
2023-05-14T01:44:13.629Z,11.27
2023-05-14T01:45:16.293Z,10.98
2023-05-14T01:46:19.636Z,10.63
2023-05-14T01:47:21.503Z,13.02
2023-05-14T01:48:23.604Z,13.30
2023-05-14T01:49:25.874Z,12.48
2023-05-14T01:50:27.587Z,12.18
2023-05-14T01:51:29.166Z,11.02
2023-05-14T01:52:30.778Z,11.13
2023-05-14T01:53:34.839Z,13.00
2023-05-14T01:54:36.517Z,12.05
2023-05-14T01:55:38.091Z,12.27
2023-05-14T01:56:39.737Z,13.90
2023-05-14T01:57:41.462Z,12.05
2023-05-14T01:58:43.298Z,11.52
2023-05-14T01:59:45.707Z,13.60
2023-05-14T02:00:47.340Z,13.82
2023-05-14T02:01:48.957Z,14.05
2023-05-14T02:02:50.723Z,14.45
2023-05-14T02:03:52.378Z,12.57
2023-05-14T02:04:54.002Z,12.75
2023-05-14T02:05:55.944Z,12.55
2023-05-14T02:06:57.575Z,12.35
2023-05-14T02:07:59.514Z,13.50
2023-05-14T02:09:01.127Z,11.65
2023-05-14T02:10:02.866Z,14.23
2023-05-14T02:11:04.741Z,13.73
2023-05-14T02:12:07.338Z,13.80
2023-05-14T02:13:09.688Z,13.35
2023-05-14T02:14:11.504Z,13.95
2023-05-14T02:15:13.148Z,12.70
2023-05-14T02:16:14.804Z,14.85
2023-05-14T02:17:17.681Z,14.10
2023-05-14T02:18:19.277Z,11.32
2023-05-14T02:19:20.987Z,15.50
2023-05-14T02:20:23.519Z,12.68
2023-05-14T02:21:25.284Z,12.32
2023-05-14T02:22:27.008Z,15.48
2023-05-14T02:23:40.311Z,12.15
2023-05-14T02:24:43.080Z,14.35
2023-05-14T02:25:44.926Z,12.90
2023-05-14T02:26:46.537Z,11.63
2023-05-14T02:27:48.183Z,13.50
2023-05-14T02:28:49.771Z,13.75
2023-05-14T02:29:51.399Z,14.40
2023-05-14T02:30:58.753Z,14.65
2023-05-14T02:32:00.446Z,14.82
2023-05-14T02:33:02.188Z,13.45
2023-05-14T02:34:06.589Z,13.63
2023-05-14T02:35:09.058Z,13.57
2023-05-14T02:36:10.779Z,12.85
2023-05-14T02:37:12.666Z,12.45
2023-05-14T02:38:14.476Z,14.02
2023-05-14T02:39:16.198Z,12.05
2023-05-14T02:40:20.467Z,13.43
2023-05-14T02:41:22.109Z,15.93
2023-05-14T02:42:23.730Z,12.43
2023-05-14T02:43:26.393Z,12.40
2023-05-14T02:44:28.008Z,13.35
2023-05-14T02:45:29.680Z,17.88
2023-05-14T02:46:32.078Z,12.35
2023-05-14T02:47:36.038Z,12.65
2023-05-14T02:48:39.222Z,12.40
2023-05-14T02:49:41.556Z,13.10
2023-05-14T02:50:43.404Z,11.77
2023-05-14T02:51:45.005Z,12.40
2023-05-14T02:52:46.649Z,14.80
2023-05-14T02:53:48.362Z,12.70
2023-05-14T02:54:50.020Z,11.38
2023-05-14T02:55:51.672Z,15.63
2023-05-14T02:56:53.307Z,12.45
2023-05-14T02:57:54.937Z,14.05
2023-05-14T02:58:56.561Z,11.65
2023-05-14T02:59:58.568Z,13.52
2023-05-14T03:01:00.585Z,12.32
2023-05-14T03:02:02.763Z,13.93
2023-05-14T03:04:07.726Z,11.55
2023-05-14T03:05:09.419Z,12.88
2023-05-14T03:06:11.065Z,13.65
2023-05-14T03:07:12.727Z,12.13
2023-05-14T03:08:14.361Z,12.98
2023-05-14T03:09:16.115Z,14.30
2023-05-14T03:10:17.863Z,13.35
2023-05-14T03:11:19.492Z,12.60
2023-05-14T03:12:21.241Z,11.82
2023-05-14T03:13:22.886Z,12.93
2023-05-14T03:14:24.526Z,14.35
2023-05-14T03:15:26.164Z,14.32
2023-05-14T03:16:27.831Z,15.38
2023-05-14T03:17:29.482Z,12.95
2023-05-14T03:18:33.330Z,11.77
2023-05-14T03:19:34.946Z,13.57
2023-05-14T03:20:36.612Z,13.77
2023-05-14T03:21:38.288Z,14.70
2023-05-14T03:22:39.953Z,14.38
2023-05-14T03:23:41.632Z,17.98
2023-05-14T03:24:43.237Z,13.60
2023-05-14T03:25:45.432Z,14.20
2023-05-14T03:26:47.057Z,14.32
2023-05-14T03:27:48.895Z,13.27
2023-05-14T03:28:51.354Z,13.02
2023-05-14T03:30:54.736Z,12.18
2023-05-14T03:31:56.435Z,15.23
2023-05-14T03:32:58.127Z,13.45
2023-05-14T03:33:59.804Z,15.05
2023-05-14T03:35:01.424Z,14.98
2023-05-14T03:36:03.402Z,13.80
2023-05-14T03:37:05.409Z,15.82
2023-05-14T03:38:07.514Z,14.43
2023-05-14T03:39:09.737Z,15.77
2023-05-14T03:40:11.726Z,14.80
2023-05-14T03:41:13.425Z,13.13
2023-05-14T03:42:15.015Z,16.63
2023-05-14T03:43:16.686Z,16.77
2023-05-14T03:44:18.492Z,17.15
2023-05-14T03:45:20.245Z,13.07
2023-05-14T03:46:21.872Z,14.25
2023-05-14T03:47:23.510Z,12.88
2023-05-14T03:48:25.323Z,15.82
2023-05-14T03:49:27.277Z,13.50
2023-05-14T03:50:29.707Z,15.32
2023-05-14T03:51:31.869Z,13.05
2023-05-14T03:52:33.511Z,12.13
2023-05-14T03:53:37.562Z,13.60
2023-05-14T03:54:41.292Z,13.82
2023-05-14T03:55:42.908Z,11.95
2023-05-14T03:56:46.227Z,11.82
2023-05-14T03:57:48.693Z,12.63
2023-05-14T03:58:50.292Z,13.35
2023-05-14T03:59:51.942Z,12.35
2023-05-14T04:01:55.848Z,14.02
2023-05-14T04:02:57.551Z,12.40
2023-05-14T04:03:59.384Z,11.85
2023-05-14T04:05:01.463Z,12.80
2023-05-14T04:06:03.301Z,10.48
2023-05-14T04:07:04.948Z,13.32
2023-05-14T04:08:06.593Z,13.00
2023-05-14T04:09:08.227Z,12.23
2023-05-14T04:10:10.180Z,13.45
2023-05-14T04:11:11.830Z,10.63
2023-05-14T04:12:13.536Z,12.45
2023-05-14T04:13:15.852Z,10.77
2023-05-14T04:14:18.234Z,12.82
2023-05-14T04:15:20.207Z,11.43
2023-05-14T04:16:21.878Z,12.98
2023-05-14T04:17:23.586Z,12.02
2023-05-14T04:18:25.558Z,11.75
2023-05-14T04:19:27.198Z,11.63
2023-05-14T04:20:28.829Z,11.95
2023-05-14T04:21:30.533Z,11.65
2023-05-14T04:22:32.446Z,11.43
2023-05-14T04:23:34.129Z,13.60
2023-05-14T04:24:35.809Z,12.32
2023-05-14T04:25:37.520Z,10.95
2023-05-14T04:26:39.102Z,11.82
2023-05-14T04:27:40.683Z,10.93
2023-05-14T04:28:42.362Z,14.35
2023-05-14T04:29:44.221Z,10.55
2023-05-14T04:30:45.892Z,12.23
2023-05-14T04:31:48.866Z,11.52
2023-05-14T04:32:50.572Z,12.75
2023-05-14T04:33:52.260Z,10.80
2023-05-14T04:34:53.892Z,11.65
2023-05-14T04:35:55.723Z,12.98
2023-05-14T04:36:57.384Z,12.07
2023-05-14T04:37:59.238Z,11.35
2023-05-14T04:39:00.823Z,12.90
2023-05-14T04:40:02.679Z,12.70
2023-05-14T04:41:04.484Z,12.90
2023-05-14T04:42:06.801Z,12.77
2023-05-14T04:43:08.457Z,13.07
2023-05-14T04:44:10.055Z,12.15
2023-05-14T04:45:12.669Z,12.55
2023-05-14T04:46:14.350Z,11.80
2023-05-14T04:47:16.153Z,12.98
2023-05-14T04:48:17.884Z,11.43
2023-05-14T04:49:20.846Z,13.10
2023-05-14T04:50:22.665Z,14.82
2023-05-14T04:51:24.448Z,12.45
2023-05-14T04:52:26.194Z,13.07
2023-05-14T04:53:27.757Z,12.88
2023-05-14T04:54:29.373Z,13.40
2023-05-14T04:55:31.121Z,14.15
2023-05-14T04:56:32.681Z,12.57
2023-05-14T04:57:34.282Z,13.57
2023-05-14T04:58:35.959Z,12.25
2023-05-14T04:59:37.571Z,13.77
2023-05-14T05:00:40.144Z,14.45
2023-05-14T05:01:41.860Z,13.38
2023-05-14T05:02:43.700Z,13.80
2023-05-14T05:03:45.466Z,13.50
2023-05-14T05:04:47.233Z,13.13
2023-05-14T05:05:48.875Z,13.75
2023-05-14T05:06:50.944Z,16.73
2023-05-14T05:07:52.567Z,14.20
2023-05-14T05:08:54.168Z,15.40
2023-05-14T05:09:55.899Z,15.18
2023-05-14T05:10:57.542Z,14.82
2023-05-14T05:11:59.208Z,14.88
2023-05-14T05:13:00.793Z,14.25
2023-05-14T05:14:02.585Z,14.75
2023-05-14T05:15:04.995Z,15.05
2023-05-14T05:16:06.908Z,13.98
2023-05-14T05:17:08.562Z,16.10
2023-05-14T05:18:10.256Z,15.82
2023-05-14T05:19:12.020Z,12.80
2023-05-14T05:20:13.840Z,15.35
2023-05-14T05:21:15.761Z,15.15
2023-05-14T05:22:17.441Z,14.20
2023-05-14T05:23:19.045Z,14.93
2023-05-14T05:24:20.695Z,14.95
2023-05-14T05:25:22.355Z,12.63
2023-05-14T05:26:26.796Z,13.68
2023-05-14T05:27:28.432Z,15.30
2023-05-14T05:28:30.079Z,15.82
2023-05-14T05:29:31.698Z,16.25
2023-05-14T05:30:33.389Z,16.48
2023-05-14T05:31:35.156Z,14.77
2023-05-14T05:32:36.934Z,28.33
2023-05-14T05:33:39.266Z,18.25
2023-05-14T05:34:41.336Z,14.82
2023-05-14T05:35:44.510Z,16.67
2023-05-14T05:36:46.113Z,15.13
2023-05-14T05:37:47.760Z,17.00
2023-05-14T05:38:49.541Z,16.02
2023-05-14T05:39:51.194Z,17.20
2023-05-14T05:40:52.904Z,17.58
2023-05-14T05:41:54.542Z,18.98
2023-05-14T05:42:56.165Z,17.15
2023-05-14T05:43:57.783Z,18.25
2023-05-14T05:44:59.378Z,17.58
2023-05-14T05:46:01.541Z,20.08
2023-05-14T05:47:03.587Z,18.85
2023-05-14T05:48:05.642Z,16.83
2023-05-14T05:49:07.262Z,17.83
2023-05-14T05:50:09.764Z,17.75
2023-05-14T05:52:13.417Z,16.55
2023-05-14T05:53:16.711Z,17.27
2023-05-14T05:54:18.326Z,17.52
2023-05-14T05:55:20.021Z,21.67
2023-05-14T05:56:22.057Z,21.60
2023-05-14T05:57:25.114Z,19.80
2023-05-14T05:58:27.911Z,19.98
2023-05-14T05:59:29.555Z,20.88
2023-05-14T06:00:31.499Z,22.85
2023-05-14T06:01:33.111Z,18.48
2023-05-14T06:02:35.033Z,21.02
2023-05-14T06:03:36.689Z,20.73
2023-05-14T06:04:38.533Z,21.45
2023-05-14T06:05:40.266Z,23.65
2023-05-14T06:06:41.937Z,22.90
2023-05-14T06:07:43.633Z,23.52
2023-05-14T06:08:45.277Z,25.30
2023-05-14T06:09:46.907Z,22.02
2023-05-14T06:10:48.488Z,24.23
2023-05-14T06:11:50.112Z,23.15
2023-05-14T06:12:51.776Z,22.48
2023-05-14T06:13:53.936Z,24.15
2023-05-14T06:14:57.747Z,22.15
2023-05-14T06:15:59.421Z,23.58
2023-05-14T06:17:01.221Z,25.80
2023-05-14T06:18:03.022Z,23.08
2023-05-14T06:19:04.907Z,24.30
2023-05-14T06:20:07.998Z,25.70
2023-05-14T06:21:09.626Z,23.45
2023-05-14T06:22:11.316Z,21.70
2023-05-14T06:23:12.974Z,23.15
2023-05-14T06:24:14.624Z,24.55
2023-05-14T06:25:16.293Z,26.52
2023-05-14T06:26:17.867Z,26.40
2023-05-14T06:27:19.800Z,25.50
2023-05-14T06:28:21.517Z,25.63
2023-05-14T06:29:23.150Z,24.27
2023-05-14T06:30:25.024Z,25.52
2023-05-14T06:31:26.865Z,25.00
2023-05-14T06:32:28.486Z,18.92
2023-05-14T06:33:31.294Z,24.15
2023-05-14T06:34:33.062Z,24.60
2023-05-14T06:35:34.726Z,23.85
2023-05-14T06:36:36.333Z,22.15
2023-05-14T06:37:37.970Z,24.83
2023-05-14T06:38:39.589Z,21.05
2023-05-14T06:39:46.603Z,24.95
2023-05-14T06:40:48.176Z,22.50
2023-05-14T06:41:49.851Z,25.77
2023-05-14T06:42:51.467Z,21.85
2023-05-14T06:43:53.096Z,24.00
2023-05-14T06:44:54.781Z,23.88
2023-05-14T06:45:56.388Z,21.13
2023-05-14T06:46:58.046Z,21.17
2023-05-14T06:47:59.908Z,22.08
2023-05-14T06:49:01.725Z,24.40
2023-05-14T06:50:03.764Z,19.48
2023-05-14T06:51:05.459Z,20.88
2023-05-14T06:52:07.116Z,23.42
2023-05-14T06:53:08.738Z,23.48
2023-05-14T06:54:10.338Z,21.38
2023-05-14T06:55:12.056Z,26.50
2023-05-14T06:56:14.713Z,23.70
2023-05-14T06:57:16.395Z,22.98
2023-05-14T06:58:18.075Z,23.45
2023-05-14T06:59:19.719Z,23.83
2023-05-14T07:00:22.060Z,20.52
2023-05-14T07:02:25.704Z,22.85
2023-05-14T07:03:27.347Z,24.27
2023-05-14T07:04:29.072Z,19.70
2023-05-14T07:05:30.935Z,23.13
2023-05-14T07:06:32.611Z,23.00
2023-05-14T07:07:34.276Z,21.13
2023-05-14T07:08:36.136Z,21.52
2023-05-14T07:09:37.722Z,21.35
2023-05-14T07:10:39.620Z,21.63
2023-05-14T07:11:41.642Z,22.05
2023-05-14T07:12:43.244Z,18.77
2023-05-14T07:13:44.926Z,21.83
2023-05-14T07:14:46.616Z,22.08
2023-05-14T07:15:48.259Z,17.98
2023-05-14T07:16:49.935Z,18.52
2023-05-14T07:17:51.568Z,21.75
2023-05-14T07:18:53.330Z,17.85
2023-05-14T07:19:56.037Z,18.77
2023-05-14T07:20:57.661Z,20.00
2023-05-14T07:21:59.245Z,17.58
2023-05-14T07:23:00.857Z,19.70
2023-05-14T07:24:02.603Z,19.63
2023-05-14T07:25:04.435Z,16.90
2023-05-14T07:26:06.568Z,18.55
2023-05-14T07:27:08.642Z,19.88
2023-05-14T07:28:10.193Z,22.23
2023-05-14T07:29:11.885Z,19.55
2023-05-14T07:30:13.682Z,22.45
2023-05-14T07:31:15.722Z,21.67
2023-05-14T07:32:17.344Z,21.50
2023-05-14T07:33:19.019Z,22.92
2023-05-14T07:34:20.996Z,22.10
2023-05-14T07:35:22.926Z,22.77
2023-05-14T07:36:24.548Z,21.25
2023-05-14T07:37:26.246Z,23.55
2023-05-14T07:38:28.000Z,25.67
2023-05-14T07:39:29.600Z,24.17
2023-05-14T07:40:31.425Z,20.20
2023-05-14T07:41:33.066Z,23.52
2023-05-14T07:42:37.177Z,24.95
2023-05-14T07:43:40.512Z,20.63
2023-05-14T07:44:42.211Z,24.05
2023-05-14T07:45:43.981Z,24.80
2023-05-14T07:46:45.644Z,28.75
2023-05-14T07:47:47.400Z,23.83
2023-05-14T07:48:49.109Z,22.70
2023-05-14T07:49:54.518Z,22.23
2023-05-14T07:50:56.168Z,25.27
2023-05-14T07:51:57.831Z,21.42
2023-05-14T07:52:59.466Z,22.67
2023-05-14T07:54:01.323Z,21.15
2023-05-14T07:55:03.886Z,20.60
2023-05-14T07:56:05.936Z,20.10
2023-05-14T07:57:07.675Z,20.30
2023-05-14T07:58:09.253Z,20.10
2023-05-14T07:59:10.874Z,20.60
2023-05-14T08:00:13.143Z,21.45
2023-05-14T08:01:14.724Z,20.25
2023-05-14T08:02:16.968Z,17.88
2023-05-14T08:04:20.520Z,22.15
2023-05-14T08:05:22.168Z,19.92
2023-05-14T08:06:27.483Z,21.33
2023-05-14T08:07:30.110Z,20.60
2023-05-14T08:08:31.738Z,19.17
2023-05-14T08:09:33.385Z,15.50
2023-05-14T08:10:35.009Z,17.70
2023-05-14T08:11:36.685Z,17.77
2023-05-14T08:12:38.932Z,17.80
2023-05-14T08:13:40.706Z,16.73
2023-05-14T08:14:43.554Z,19.00
2023-05-14T08:15:45.614Z,20.20
2023-05-14T08:16:47.801Z,20.52
2023-05-14T08:17:49.518Z,19.33
2023-05-14T08:18:51.157Z,17.13
2023-05-14T08:19:53.719Z,17.15
2023-05-14T08:20:55.401Z,19.85
2023-05-14T08:21:57.328Z,19.83
2023-05-14T08:22:58.934Z,18.73
2023-05-14T08:24:00.746Z,18.85
2023-05-14T08:25:03.830Z,18.00
2023-05-14T08:26:05.453Z,19.40
2023-05-14T08:27:07.195Z,21.10
2023-05-14T08:28:08.842Z,18.88
2023-05-14T08:29:11.578Z,22.77
2023-05-14T08:30:14.218Z,18.02
2023-05-14T08:31:15.966Z,18.88
2023-05-14T08:32:23.185Z,20.00
2023-05-14T08:33:25.623Z,19.33
2023-05-14T08:34:28.030Z,19.92
2023-05-14T08:36:31.516Z,19.13
2023-05-14T08:37:33.165Z,15.57
2023-05-14T08:38:34.827Z,16.88
2023-05-14T08:39:36.398Z,17.35
2023-05-14T08:40:38.038Z,15.95
2023-05-14T08:41:40.394Z,15.88
2023-05-14T08:42:43.105Z,16.60
2023-05-14T08:43:47.415Z,17.00
2023-05-14T08:44:50.263Z,15.32
2023-05-14T08:45:54.453Z,18.40
2023-05-14T08:46:56.381Z,17.27
2023-05-14T08:47:58.635Z,17.70
2023-05-14T08:49:40.749Z,16.42
2023-05-14T08:50:43.675Z,15.13
2023-05-14T08:51:48.325Z,15.82
2023-05-14T08:52:50.080Z,14.80
2023-05-14T08:53:51.895Z,15.88
2023-05-14T08:54:54.054Z,17.08
2023-05-14T08:55:55.757Z,14.48
2023-05-14T08:56:57.722Z,13.40
2023-05-14T08:57:59.533Z,14.23
2023-05-14T08:59:01.220Z,13.63
2023-05-14T09:00:14.264Z,12.88
2023-05-14T09:01:16.383Z,13.43
2023-05-14T09:02:20.926Z,15.30
2023-05-14T09:03:23.294Z,12.63
2023-05-14T09:04:25.331Z,11.15
2023-05-14T09:05:27.450Z,12.40
2023-05-14T09:06:29.428Z,11.90
2023-05-14T09:07:31.049Z,12.07
2023-05-14T09:08:33.312Z,12.13
2023-05-14T09:09:35.462Z,9.70
2023-05-14T09:10:37.062Z,11.23
2023-05-14T09:11:42.745Z,10.57
2023-05-14T09:12:44.429Z,11.82
2023-05-14T09:13:46.042Z,10.68
2023-05-14T09:14:48.742Z,11.20
2023-05-14T09:15:51.193Z,9.50
2023-05-14T09:17:55.038Z,9.55
2023-05-14T09:18:56.698Z,9.60
2023-05-14T09:19:58.520Z,8.23
2023-05-14T09:21:00.378Z,8.57
2023-05-14T09:22:01.990Z,8.75
2023-05-14T09:23:04.122Z,10.80
2023-05-14T09:24:06.092Z,8.45
2023-05-14T09:25:10.979Z,7.28
2023-05-14T09:26:17.522Z,7.07
2023-05-14T09:27:22.181Z,7.28
2023-05-14T09:28:24.348Z,7.28
2023-05-14T09:29:26.936Z,7.65
2023-05-14T09:30:28.556Z,5.95
2023-05-14T09:31:31.738Z,5.40
2023-05-14T09:32:40.462Z,6.20
2023-05-14T09:33:42.127Z,5.90
2023-05-14T09:34:43.719Z,6.38
2023-05-14T09:35:47.042Z,6.38
2023-05-14T09:36:48.645Z,7.57
2023-05-14T09:37:52.154Z,7.45
2023-05-14T09:38:56.901Z,6.88
2023-05-14T09:39:58.484Z,8.00
2023-05-14T09:41:00.790Z,8.07
2023-05-14T09:42:03.032Z,6.72
2023-05-14T09:43:04.727Z,6.72
2023-05-14T09:44:06.818Z,8.77
2023-05-14T09:45:09.577Z,8.05
2023-05-14T09:46:11.150Z,7.20
2023-05-14T09:47:15.375Z,7.72
2023-05-14T09:48:17.404Z,8.05
2023-05-14T09:49:19.573Z,9.02
2023-05-14T09:50:21.361Z,7.93
2023-05-14T09:51:23.529Z,9.45
2023-05-14T09:52:25.313Z,8.77
2023-05-14T09:53:27.326Z,8.13
2023-05-14T09:54:29.242Z,8.73
2023-05-14T09:55:31.374Z,8.15
2023-05-14T09:56:34.124Z,7.80
2023-05-14T09:57:35.816Z,10.27
2023-05-14T09:58:37.517Z,7.07
2023-05-14T09:59:39.262Z,8.15
2023-05-14T10:00:44.901Z,7.30
2023-05-14T10:01:46.651Z,6.68
2023-05-14T10:02:49.287Z,7.55
2023-05-14T10:03:52.836Z,6.30
2023-05-14T10:04:57.991Z,7.93
2023-05-14T10:06:05.223Z,5.85
2023-05-14T10:07:06.899Z,7.10
2023-05-14T10:08:41.662Z,6.55
2023-05-14T10:09:44.249Z,6.30
2023-05-14T10:10:45.844Z,6.13
2023-05-14T10:11:50.163Z,7.43
2023-05-14T10:12:53.737Z,6.20
2023-05-14T10:13:57.939Z,6.93
2023-05-14T10:15:01.668Z,6.10
2023-05-14T10:16:11.785Z,6.20
2023-05-14T10:17:18.416Z,7.05
2023-05-14T10:18:23.684Z,6.38
2023-05-14T10:19:26.273Z,7.43
2023-05-14T10:20:28.364Z,6.55
2023-05-14T10:21:31.830Z,5.55
2023-05-14T10:22:35.187Z,8.68
2023-05-14T10:23:40.507Z,5.68
2023-05-14T10:24:42.625Z,5.97
2023-05-14T10:25:44.416Z,7.47
2023-05-14T10:26:46.266Z,7.15
2023-05-14T10:27:48.027Z,6.57
2023-05-14T10:28:49.847Z,6.68
2023-05-14T10:29:55.227Z,7.13
2023-05-14T10:30:56.850Z,6.22
2023-05-14T10:31:58.428Z,6.57
2023-05-14T10:33:13.557Z,7.03
2023-05-14T10:34:46.431Z,6.55
2023-05-14T10:37:15.029Z,6.15
2023-05-14T10:38:16.778Z,6.07
2023-05-14T10:39:18.370Z,5.03
2023-05-14T10:40:20.376Z,6.53
2023-05-14T10:41:22.129Z,7.30
2023-05-14T10:42:33.444Z,8.43
2023-05-14T10:43:37.698Z,5.55
2023-05-14T10:44:46.236Z,6.68
2023-05-14T10:46:49.407Z,5.95
2023-05-14T10:47:51.283Z,6.75
2023-05-14T10:48:53.287Z,6.82
2023-05-14T10:49:56.936Z,7.63
2023-05-14T10:50:58.741Z,7.47
2023-05-14T10:52:00.469Z,7.50
2023-05-14T10:53:02.725Z,6.78
2023-05-14T10:54:04.405Z,6.57
2023-05-14T10:55:12.926Z,7.22
2023-05-14T10:57:18.360Z,7.55
2023-05-14T10:58:21.098Z,6.95
2023-05-14T10:59:27.378Z,6.65
2023-05-14T11:00:29.256Z,7.65
2023-05-14T11:01:31.991Z,5.53
2023-05-14T11:02:37.002Z,6.95
2023-05-14T11:03:43.735Z,6.30
2023-05-14T11:04:54.956Z,6.97
2023-05-14T11:05:56.580Z,6.70
2023-05-14T11:06:58.444Z,8.68
2023-05-14T11:08:02.371Z,6.95
2023-05-14T11:09:05.112Z,6.63
2023-05-14T11:10:09.269Z,6.05
2023-05-14T11:11:11.068Z,5.68
2023-05-14T11:12:12.695Z,6.95
2023-05-14T11:13:16.314Z,9.95
2023-05-14T11:14:18.113Z,7.45
2023-05-14T11:15:21.771Z,6.75
2023-05-14T11:16:24.421Z,5.88
2023-05-14T11:17:27.088Z,5.93
2023-05-14T11:18:38.663Z,5.75
2023-05-14T11:19:43.654Z,8.07
2023-05-14T11:20:45.400Z,6.18
2023-05-14T11:21:47.353Z,7.30
2023-05-14T11:22:51.532Z,6.97
2023-05-14T11:23:55.372Z,15.38
2023-05-14T11:24:57.558Z,13.55
2023-05-14T11:25:59.206Z,9.05
2023-05-14T11:27:00.894Z,8.07
2023-05-14T11:28:02.588Z,6.72
2023-05-14T11:29:05.214Z,6.70
2023-05-14T11:30:17.910Z,7.32
2023-05-14T11:31:19.682Z,12.18
2023-05-14T11:32:21.653Z,20.05
2023-05-14T11:33:23.263Z,7.10
2023-05-14T11:34:24.856Z,6.55
2023-05-14T11:35:26.500Z,8.57
2023-05-14T11:36:28.100Z,8.45
2023-05-14T11:37:30.797Z,10.35
2023-05-14T11:38:32.464Z,7.43
2023-05-14T11:39:35.966Z,6.88
2023-05-14T11:40:37.592Z,7.72
2023-05-14T11:41:45.085Z,6.43
2023-05-14T11:42:46.777Z,8.25
2023-05-14T11:43:48.489Z,8.35
2023-05-14T11:44:51.908Z,6.68
2023-05-14T11:45:54.300Z,5.35
2023-05-14T11:46:59.220Z,6.88
2023-05-14T11:48:01.062Z,6.03
2023-05-14T11:49:06.640Z,6.65
2023-05-14T11:50:09.641Z,5.95
2023-05-14T11:51:11.564Z,6.18
2023-05-14T11:52:15.148Z,5.88
2023-05-14T11:53:19.032Z,5.35
2023-05-14T11:54:20.625Z,4.65
2023-05-14T11:55:22.288Z,5.63
2023-05-14T11:56:23.943Z,5.38
2023-05-14T11:57:26.070Z,6.38
2023-05-14T11:58:27.673Z,6.43
2023-05-14T11:59:31.757Z,6.38
2023-05-14T12:00:34.191Z,5.38
2023-05-14T12:02:38.667Z,6.22
2023-05-14T12:03:40.603Z,6.07
2023-05-14T12:04:44.700Z,6.32
2023-05-14T12:05:57.157Z,5.63
2023-05-14T12:07:00.355Z,6.28
2023-05-14T12:08:02.016Z,5.90
2023-05-14T12:09:05.601Z,6.25
2023-05-14T12:10:07.921Z,5.63
2023-05-14T12:11:09.514Z,5.57
2023-05-14T12:12:12.162Z,7.40
2023-05-14T12:13:16.464Z,5.80
2023-05-14T12:14:24.248Z,5.97
2023-05-14T12:15:26.749Z,6.07
2023-05-14T12:17:40.040Z,4.88
2023-05-14T12:18:42.806Z,5.65
2023-05-14T12:19:46.514Z,5.03
2023-05-14T12:20:49.103Z,6.00
2023-05-14T12:21:51.134Z,5.88
2023-05-14T12:22:52.749Z,5.25
2023-05-14T12:24:00.884Z,5.78
2023-05-14T12:25:02.586Z,4.80
2023-05-14T12:26:06.672Z,5.53
2023-05-14T12:27:10.004Z,7.57
2023-05-14T12:28:15.893Z,5.50
2023-05-14T12:29:17.768Z,6.15
2023-05-14T12:30:21.889Z,5.45
2023-05-14T12:31:36.568Z,5.32
2023-05-14T12:32:40.952Z,6.45
2023-05-14T12:33:42.639Z,5.93
2023-05-14T12:34:44.222Z,5.88
2023-05-14T12:35:46.965Z,5.15
2023-05-14T12:36:48.554Z,4.15
2023-05-14T12:37:50.184Z,5.20
2023-05-14T12:39:01.491Z,5.43
2023-05-14T12:40:09.755Z,4.90
2023-05-14T12:41:11.443Z,4.90
2023-05-14T12:42:17.480Z,5.07
2023-05-14T12:43:19.670Z,5.00
2023-05-14T12:44:22.591Z,5.35
2023-05-14T12:45:24.554Z,4.82
2023-05-14T12:46:27.653Z,5.15
2023-05-14T12:47:29.360Z,4.80
2023-05-14T12:48:31.428Z,3.80
2023-05-14T12:49:33.006Z,4.65
2023-05-14T12:50:34.643Z,6.82
2023-05-14T12:51:36.308Z,3.92
2023-05-14T12:52:39.744Z,5.13
2023-05-14T12:53:41.796Z,4.03
2023-05-14T12:54:43.496Z,4.47
2023-05-14T12:55:45.236Z,3.38
2023-05-14T12:56:46.881Z,3.95
2023-05-14T12:57:48.569Z,4.53
2023-05-14T12:58:50.189Z,5.07
2023-05-14T12:59:51.812Z,3.83
2023-05-14T13:00:53.522Z,3.55
2023-05-14T13:01:55.145Z,5.72
2023-05-14T13:02:56.775Z,4.78
2023-05-14T13:03:59.526Z,4.25
2023-05-14T13:05:02.787Z,4.95
2023-05-14T13:06:04.587Z,4.22
2023-05-14T13:07:06.254Z,4.07
2023-05-14T13:08:07.886Z,4.32
2023-05-14T13:09:09.529Z,4.85
2023-05-14T13:10:11.578Z,4.60
2023-05-14T13:11:13.588Z,4.30
2023-05-14T13:12:15.546Z,5.03
2023-05-14T13:13:17.224Z,4.78
2023-05-14T13:14:20.163Z,3.85
2023-05-14T13:15:22.904Z,4.57
2023-05-14T13:16:26.236Z,5.22
2023-05-14T13:17:28.019Z,5.60
2023-05-14T13:18:29.769Z,4.88
2023-05-14T13:19:31.348Z,4.43
2023-05-14T13:20:33.870Z,4.43
2023-05-14T13:21:35.445Z,4.40
2023-05-14T13:22:37.062Z,4.82
2023-05-14T13:23:38.896Z,4.78
2023-05-14T13:24:40.498Z,4.82
2023-05-14T13:25:42.111Z,4.65
2023-05-14T13:26:44.957Z,4.63
2023-05-14T13:27:46.545Z,5.38
2023-05-14T13:28:48.175Z,5.82
2023-05-14T13:29:49.824Z,4.45
2023-05-14T13:31:11.304Z,6.47
2023-05-14T13:32:13.094Z,4.38
2023-05-14T13:33:14.968Z,4.15
2023-05-14T13:34:16.607Z,4.30
2023-05-14T13:35:18.310Z,3.75
2023-05-14T13:36:20.068Z,4.35
2023-05-14T13:37:21.681Z,3.63
2023-05-14T13:38:23.329Z,3.92
2023-05-14T13:39:27.071Z,4.03
2023-05-14T13:40:28.842Z,4.90
2023-05-14T13:41:32.421Z,4.45
2023-05-14T13:42:34.375Z,5.50
2023-05-14T13:43:36.095Z,5.32
2023-05-14T13:44:37.680Z,4.35
2023-05-14T13:45:39.283Z,4.00
2023-05-14T13:46:40.916Z,4.53
2023-05-14T13:47:42.750Z,4.55
2023-05-14T13:48:44.394Z,4.55
2023-05-14T13:49:45.983Z,3.63
2023-05-14T13:50:47.588Z,4.65
2023-05-14T13:51:49.223Z,5.03